Terminal Aerodrome Forecast
Issued by NWS Sioux Falls, SD

Home | Current Version | Previous Version | Graphics & Text | Print | Product List | Glossary On
Versions: 1 2 3 4 5 6 7 8 9 10 11 12 13 14 15 16 17 18 19 20 21 22 23 24 25 26
000
FTUS43 KFSD 241120
TAFSUX
TAF
KSUX 241120Z 2412/2512 35007KT P6SM FEW250
     FM241700 35011KT P6SM BKN250
     FM242100 01008KT P6SM BKN110
     FM250300 VRB03KT P6SM SCT120=

USA.gov is the U.S. government's official web portal to all federal, state and local government web resources and services.